sensor_id;sensor_type;location;lat;lon;timestamp;pressure;altitude;pressure_sealevel;temperature;humidity
48204;BME280;33994;50.998;5.864;2023-01-27T00:00:10;101824.03;;;3.43;100.00
48204;BME280;33994;50.998;5.864;2023-01-27T00:03:15;101824.00;;;3.41;100.00
48204;BME280;33994;50.998;5.864;2023-01-27T00:06:19;101827.44;;;3.40;100.00
48204;BME280;33994;50.998;5.864;2023-01-27T00:09:21;101829.06;;;3.36;100.00
48204;BME280;33994;50.998;5.864;2023-01-27T00:12:25;101823.88;;;3.36;100.00
48204;BME280;33994;50.998;5.864;2023-01-27T00:15:29;101821.31;;;3.38;100.00
48204;BME280;33994;50.998;5.864;2023-01-27T00:18:34;101818.63;;;3.35;100.00
48204;BME280;33994;50.998;5.864;2023-01-27T00:21:37;101827.25;;;3.34;100.00
48204;BME280;33994;50.998;5.864;2023-01-27T00:24:40;101827.13;;;3.31;100.00
48204;BME280;33994;50.998;5.864;2023-01-27T00:27:44;101822.69;;;3.27;99.93
48204;BME280;33994;50.998;5.864;2023-01-27T00:30:47;101823.53;;;3.26;99.96
48204;BME280;33994;50.998;5.864;2023-01-27T00:33:51;101827.00;;;3.26;99.96
48204;BME280;33994;50.998;5.864;2023-01-27T00:36:54;101830.41;;;3.24;99.94
48204;BME280;33994;50.998;5.864;2023-01-27T00:39:58;101828.63;;;3.23;99.87
48204;BME280;33994;50.998;5.864;2023-01-27T00:43:01;101825.13;;;3.21;100.00
48204;BME280;33994;50.998;5.864;2023-01-27T00:46:04;101828.50;;;3.20;99.64
48204;BME280;33994;50.998;5.864;2023-01-27T00:49:09;101825.84;;;3.17;99.92
48204;BME280;33994;50.998;5.864;2023-01-27T00:52:12;101825.91;;;3.18;99.92
48204;BME280;33994;50.998;5.864;2023-01-27T00:55:15;101819.88;;;3.19;99.82
48204;BME280;33994;50.998;5.864;2023-01-27T00:58:18;101821.59;;;3.19;99.52
48204;BME280;33994;50.998;5.864;2023-01-27T01:01:21;101832.88;;;3.21;99.52
48204;BME280;33994;50.998;5.864;2023-01-27T01:04:26;101822.53;;;3.21;99.45
48204;BME280;33994;50.998;5.864;2023-01-27T01:07:28;101834.66;;;3.23;99.20
48204;BME280;33994;50.998;5.864;2023-01-27T01:10:31;101830.41;;;3.24;98.96
48204;BME280;33994;50.998;5.864;2023-01-27T01:13:34;101833.78;;;3.23;98.65
48204;BME280;33994;50.998;5.864;2023-01-27T01:16:38;101833.78;;;3.23;98.47
48204;BME280;33994;50.998;5.864;2023-01-27T01:19:42;101841.50;;;3.21;98.16
48204;BME280;33994;50.998;5.864;2023-01-27T01:22:45;101844.84;;;3.19;97.93
48204;BME280;33994;50.998;5.864;2023-01-27T01:25:51;101843.09;;;3.16;97.54
48204;BME280;33994;50.998;5.864;2023-01-27T01:28:55;101849.13;;;3.17;97.42
48204;BME280;33994;50.998;5.864;2023-01-27T01:31:57;101857.69;;;3.15;96.75
48204;BME280;33994;50.998;5.864;2023-01-27T01:35:02;101849.94;;;3.15;96.50
48204;BME280;33994;50.998;5.864;2023-01-27T01:38:05;101856.03;;;3.18;96.09
48204;BME280;33994;50.998;5.864;2023-01-27T01:41:11;101860.22;;;3.14;95.62
48204;BME280;33994;50.998;5.864;2023-01-27T01:44:20;101863.66;;;3.13;95.13
48204;BME280;33994;50.998;5.864;2023-01-27T01:47:24;101855.84;;;3.11;95.25
48204;BME280;33994;50.998;5.864;2023-01-27T01:50:28;101859.38;;;3.13;95.05
48204;BME280;33994;50.998;5.864;2023-01-27T01:53:34;101855.94;;;3.14;94.71
48204;BME280;33994;50.998;5.864;2023-01-27T01:56:43;101857.50;;;3.09;94.40
48204;BME280;33994;50.998;5.864;2023-01-27T01:59:51;101865.19;;;3.08;94.08
48204;BME280;33994;50.998;5.864;2023-01-27T02:02:55;101863.41;;;3.05;93.90
48204;BME280;33994;50.998;5.864;2023-01-27T02:06:00;101858.28;;;3.07;93.62
48204;BME280;33994;50.998;5.864;2023-01-27T02:09:03;101863.44;;;3.07;93.44
48204;BME280;33994;50.998;5.864;2023-01-27T02:12:06;101862.47;;;3.03;93.02
48204;BME280;33994;50.998;5.864;2023-01-27T02:15:10;101857.38;;;3.05;92.79
48204;BME280;33994;50.998;5.864;2023-01-27T02:18:14;101868.59;;;3.05;92.76
48204;BME280;33994;50.998;5.864;2023-01-27T02:21:19;101865.84;;;3.01;92.53
48204;BME280;33994;50.998;5.864;2023-01-27T02:24:28;101860.63;;;2.99;92.58
48204;BME280;33994;50.998;5.864;2023-01-27T02:27:37;101870.94;;;2.99;92.46
48204;BME280;33994;50.998;5.864;2023-01-27T02:30:40;101868.34;;;2.98;92.22
48204;BME280;33994;50.998;5.864;2023-01-27T02:33:43;101863.94;;;2.95;91.19
48204;BME280;33994;50.998;5.864;2023-01-27T02:36:49;101859.59;;;2.94;90.65
48204;BME280;33994;50.998;5.864;2023-01-27T02:39:53;101867.34;;;2.94;89.56
48204;BME280;33994;50.998;5.864;2023-01-27T02:42:58;101871.53;;;2.90;88.75
48204;BME280;33994;50.998;5.864;2023-01-27T02:46:02;101870.66;;;2.90;88.51
48204;BME280;33994;50.998;5.864;2023-01-27T02:49:05;101863.81;;;2.92;88.27
48204;BME280;33994;50.998;5.864;2023-01-27T02:52:08;101870.78;;;2.93;88.36
48204;BME280;33994;50.998;5.864;2023-01-27T02:55:11;101855.16;;;2.90;88.61
48204;BME280;33994;50.998;5.864;2023-01-27T02:58:16;101861.19;;;2.90;88.87
48204;BME280;33994;50.998;5.864;2023-01-27T03:01:19;101860.31;;;2.90;89.15
48204;BME280;33994;50.998;5.864;2023-01-27T03:04:22;101864.56;;;2.88;89.52
48204;BME280;33994;50.998;5.864;2023-01-27T03:07:25;101866.31;;;2.89;89.82
48204;BME280;33994;50.998;5.864;2023-01-27T03:10:29;101869.72;;;2.88;90.03
48204;BME280;33994;50.998;5.864;2023-01-27T03:13:33;101865.38;;;2.87;90.34
48204;BME280;33994;50.998;5.864;2023-01-27T03:16:37;101875.69;;;2.85;90.43
48204;BME280;33994;50.998;5.864;2023-01-27T03:19:40;101883.44;;;2.85;90.56
48204;BME280;33994;50.998;5.864;2023-01-27T03:22:43;101871.31;;;2.84;90.74
48204;BME280;33994;50.998;5.864;2023-01-27T03:25:47;101879.03;;;2.83;90.70
48204;BME280;33994;50.998;5.864;2023-01-27T03:28:51;101871.22;;;2.81;90.82
48204;BME280;33994;50.998;5.864;2023-01-27T03:31:54;101878.16;;;2.82;90.94
48204;BME280;33994;50.998;5.864;2023-01-27T03:34:58;101872.19;;;2.85;90.82
48204;BME280;33994;50.998;5.864;2023-01-27T03:38:01;101879.91;;;2.83;90.76
48204;BME280;33994;50.998;5.864;2023-01-27T03:41:04;101878.09;;;2.81;90.68
48204;BME280;33994;50.998;5.864;2023-01-27T03:44:09;101883.22;;;2.79;90.63
48204;BME280;33994;50.998;5.864;2023-01-27T03:47:12;101890.03;;;2.77;90.58
48204;BME280;33994;50.998;5.864;2023-01-27T03:50:16;101887.50;;;2.79;90.13
48204;BME280;33994;50.998;5.864;2023-01-27T03:53:19;101887.41;;;2.76;89.99
48204;BME280;33994;50.998;5.864;2023-01-27T03:56:22;101889.94;;;2.74;89.83
48204;BME280;33994;50.998;5.864;2023-01-27T03:59:27;101896.00;;;2.75;89.67
48204;BME280;33994;50.998;5.864;2023-01-27T04:02:31;101901.16;;;2.75;89.60
48204;BME280;33994;50.998;5.864;2023-01-27T04:05:34;101907.19;;;2.75;89.76
48204;BME280;33994;50.998;5.864;2023-01-27T04:08:37;101905.44;;;2.74;89.61
48204;BME280;33994;50.998;5.864;2023-01-27T04:11:43;101913.25;;;2.76;89.72
48204;BME280;33994;50.998;5.864;2023-01-27T04:14:48;101913.13;;;2.73;89.79
48204;BME280;33994;50.998;5.864;2023-01-27T04:17:51;101917.38;;;2.71;89.97
48204;BME280;33994;50.998;5.864;2023-01-27T04:20:54;101920.69;;;2.66;89.96
48204;BME280;33994;50.998;5.864;2023-01-27T04:23:57;101927.53;;;2.66;89.77
48204;BME280;33994;50.998;5.864;2023-01-27T04:27:02;101919.75;;;2.64;89.76
48204;BME280;33994;50.998;5.864;2023-01-27T04:30:08;101921.50;;;2.65;89.95
48204;BME280;33994;50.998;5.864;2023-01-27T04:33:12;101926.66;;;2.65;90.24
48204;BME280;33994;50.998;5.864;2023-01-27T04:36:15;101932.81;;;2.69;90.11
48204;BME280;33994;50.998;5.864;2023-01-27T04:39:18;101926.66;;;2.65;90.08
48204;BME280;33994;50.998;5.864;2023-01-27T04:42:21;101929.19;;;2.64;90.07
48204;BME280;33994;50.998;5.864;2023-01-27T04:45:26;101931.69;;;2.62;90.13
48204;BME280;33994;50.998;5.864;2023-01-27T04:48:29;101932.53;;;2.61;90.12
48204;BME280;33994;50.998;5.864;2023-01-27T04:51:32;101940.09;;;2.55;90.14
48204;BME280;33994;50.998;5.864;2023-01-27T04:54:36;101949.34;;;2.50;90.40
48204;BME280;33994;50.998;5.864;2023-01-27T04:57:39;101943.28;;;2.48;90.51
48204;BME280;33994;50.998;5.864;2023-01-27T05:00:44;101951.72;;;2.44;90.66
48204;BME280;33994;50.998;5.864;2023-01-27T05:03:47;101952.50;;;2.41;90.97
48204;BME280;33994;50.998;5.864;2023-01-27T05:06:50;101957.69;;;2.43;91.17
48204;BME280;33994;50.998;5.864;2023-01-27T05:09:53;101966.25;;;2.40;90.71
48204;BME280;33994;50.998;5.864;2023-01-27T05:12:57;101965.38;;;2.40;90.35
48204;BME280;33994;50.998;5.864;2023-01-27T05:16:08;101968.88;;;2.42;90.25
48204;BME280;33994;50.998;5.864;2023-01-27T05:19:12;101974.03;;;2.42;90.03
48204;BME280;33994;50.998;5.864;2023-01-27T05:22:16;101965.28;;;2.38;89.57
48204;BME280;33994;50.998;5.864;2023-01-27T05:25:19;101976.41;;;2.36;89.32
48204;BME280;33994;50.998;5.864;2023-01-27T05:28:22;101974.63;;;2.35;89.55
48204;BME280;33994;50.998;5.864;2023-01-27T05:31:28;101968.66;;;2.36;89.74
48204;BME280;33994;50.998;5.864;2023-01-27T05:34:31;101975.56;;;2.37;89.93
48204;BME280;33994;50.998;5.864;2023-01-27T05:37:34;101968.69;;;2.37;89.97
48204;BME280;33994;50.998;5.864;2023-01-27T05:40:37;101975.63;;;2.38;90.17
48204;BME280;33994;50.998;5.864;2023-01-27T05:43:42;101973.75;;;2.34;90.17
48204;BME280;33994;50.998;5.864;2023-01-27T05:46:47;101977.09;;;2.32;90.53
48204;BME280;33994;50.998;5.864;2023-01-27T05:49:50;101980.63;;;2.34;90.81
48204;BME280;33994;50.998;5.864;2023-01-27T05:52:53;101971.03;;;2.31;91.15
48204;BME280;33994;50.998;5.864;2023-01-27T05:55:56;101979.63;;;2.30;91.23
48204;BME280;33994;50.998;5.864;2023-01-27T05:58:59;101965.00;;;2.31;91.63
48204;BME280;33994;50.998;5.864;2023-01-27T06:02:04;101965.88;;;2.31;91.59
48204;BME280;33994;50.998;5.864;2023-01-27T06:05:07;101980.63;;;2.34;91.63
48204;BME280;33994;50.998;5.864;2023-01-27T06:08:10;101976.28;;;2.33;91.65
48204;BME280;33994;50.998;5.864;2023-01-27T06:11:15;101975.28;;;2.29;91.72
48204;BME280;33994;50.998;5.864;2023-01-27T06:14:18;101975.13;;;2.25;92.05
48204;BME280;33994;50.998;5.864;2023-01-27T06:17:22;101974.16;;;2.23;92.32
48204;BME280;33994;50.998;5.864;2023-01-27T06:20:25;101977.00;;;2.29;92.49
48204;BME280;33994;50.998;5.864;2023-01-27T06:23:28;101986.44;;;2.28;92.59
48204;BME280;33994;50.998;5.864;2023-01-27T06:26:32;101983.03;;;2.29;92.58
48204;BME280;33994;50.998;5.864;2023-01-27T06:29:35;101986.53;;;2.31;92.96
48204;BME280;33994;50.998;5.864;2023-01-27T06:32:39;101994.34;;;2.33;93.14
48204;BME280;33994;50.998;5.864;2023-01-27T06:35:42;101990.00;;;2.32;93.13
48204;BME280;33994;50.998;5.864;2023-01-27T06:38:46;101985.53;;;2.28;93.46
48204;BME280;33994;50.998;5.864;2023-01-27T06:41:50;101989.06;;;2.30;93.47
48204;BME280;33994;50.998;5.864;2023-01-27T06:44:53;102002.69;;;2.26;93.89
48204;BME280;33994;50.998;5.864;2023-01-27T06:47:59;101998.34;;;2.25;94.07
48204;BME280;33994;50.998;5.864;2023-01-27T06:51:03;101999.22;;;2.25;94.46
48204;BME280;33994;50.998;5.864;2023-01-27T06:54:06;102004.28;;;2.22;94.81
48204;BME280;33994;50.998;5.864;2023-01-27T06:57:09;102008.47;;;2.20;95.19
48204;BME280;33994;50.998;5.864;2023-01-27T07:00:13;102011.03;;;2.18;95.62
48204;BME280;33994;50.998;5.864;2023-01-27T07:03:18;102011.25;;;2.25;95.66
48204;BME280;33994;50.998;5.864;2023-01-27T07:06:21;102021.59;;;2.25;95.82
48204;BME280;33994;50.998;5.864;2023-01-27T07:09:24;102017.22;;;2.24;95.81
48204;BME280;33994;50.998;5.864;2023-01-27T07:12:27;102014.59;;;2.22;96.42
48204;BME280;33994;50.998;5.864;2023-01-27T07:15:30;102023.22;;;2.23;96.49
48204;BME280;33994;50.998;5.864;2023-01-27T07:18:34;102019.94;;;2.27;96.81
48204;BME280;33994;50.998;5.864;2023-01-27T07:21:38;102026.09;;;2.30;96.78
48204;BME280;33994;50.998;5.864;2023-01-27T07:24:41;102026.84;;;2.28;96.64
48204;BME280;33994;50.998;5.864;2023-01-27T07:27:44;102029.63;;;2.32;96.96
48204;BME280;33994;50.998;5.864;2023-01-27T07:30:47;102035.53;;;2.30;96.70
48204;BME280;33994;50.998;5.864;2023-01-27T07:33:52;102024.34;;;2.29;96.82
48204;BME280;33994;50.998;5.864;2023-01-27T07:36:55;102026.84;;;2.28;96.80
48204;BME280;33994;50.998;5.864;2023-01-27T07:39:58;102027.84;;;2.31;97.11
48204;BME280;33994;50.998;5.864;2023-01-27T07:43:02;102032.13;;;2.31;96.94
48204;BME280;33994;50.998;5.864;2023-01-27T07:46:05;102031.22;;;2.29;96.84
48204;BME280;33994;50.998;5.864;2023-01-27T07:49:10;102030.25;;;2.27;96.88
48204;BME280;33994;50.998;5.864;2023-01-27T07:52:13;102031.97;;;2.26;96.87
48204;BME280;33994;50.998;5.864;2023-01-27T07:55:16;102037.16;;;2.28;96.92
48204;BME280;33994;50.998;5.864;2023-01-27T07:58:19;102033.78;;;2.29;96.91
48204;BME280;33994;50.998;5.864;2023-01-27T08:01:23;102038.00;;;2.27;97.21
48204;BME280;33994;50.998;5.864;2023-01-27T08:04:27;102038.94;;;2.29;97.37
48204;BME280;33994;50.998;5.864;2023-01-27T08:07:30;102045.13;;;2.32;97.15
48204;BME280;33994;50.998;5.864;2023-01-27T08:10:34;102051.03;;;2.30;97.06
48204;BME280;33994;50.998;5.864;2023-01-27T08:13:37;102046.56;;;2.26;97.31
48204;BME280;33994;50.998;5.864;2023-01-27T08:16:40;102050.19;;;2.31;97.47
48204;BME280;33994;50.998;5.864;2023-01-27T08:19:44;102044.34;;;2.35;97.50
48204;BME280;33994;50.998;5.864;2023-01-27T08:22:47;102048.63;;;2.34;97.35
48204;BME280;33994;50.998;5.864;2023-01-27T08:25:51;102043.53;;;2.36;97.03
48204;BME280;33994;50.998;5.864;2023-01-27T08:28:55;102041.91;;;2.39;97.03
48204;BME280;33994;50.998;5.864;2023-01-27T08:31:57;102042.91;;;2.43;96.78
48204;BME280;33994;50.998;5.864;2023-01-27T08:35:02;102042.13;;;2.44;96.54
48204;BME280;33994;50.998;5.864;2023-01-27T08:38:05;102037.88;;;2.46;96.40
48204;BME280;33994;50.998;5.864;2023-01-27T08:41:10;102043.16;;;2.49;96.15
48204;BME280;33994;50.998;5.864;2023-01-27T08:44:13;102036.44;;;2.54;96.04
48204;BME280;33994;50.998;5.864;2023-01-27T08:47:17;102048.44;;;2.52;95.95
48204;BME280;33994;50.998;5.864;2023-01-27T08:50:21;102050.19;;;2.53;95.88
48204;BME280;33994;50.998;5.864;2023-01-27T08:53:26;102040.91;;;2.58;95.50
48204;BME280;33994;50.998;5.864;2023-01-27T08:56:29;102051.34;;;2.61;95.42
48204;BME280;33994;50.998;5.864;2023-01-27T08:59:32;102052.19;;;2.60;95.35
48204;BME280;33994;50.998;5.864;2023-01-27T09:02:35;102050.53;;;2.62;95.40
48204;BME280;33994;50.998;5.864;2023-01-27T09:05:40;102053.31;;;2.67;95.42
48204;BME280;33994;50.998;5.864;2023-01-27T09:08:44;102055.06;;;2.68;95.26
48204;BME280;33994;50.998;5.864;2023-01-27T09:11:47;102061.81;;;2.64;95.21
48204;BME280;33994;50.998;5.864;2023-01-27T09:14:50;102065.22;;;2.63;95.38
48204;BME280;33994;50.998;5.864;2023-01-27T09:17:53;102072.19;;;2.66;95.32
48204;BME280;33994;50.998;5.864;2023-01-27T09:20:57;102057.47;;;2.63;95.45
48204;BME280;33994;50.998;5.864;2023-01-27T09:24:00;102067.69;;;2.60;95.20
48204;BME280;33994;50.998;5.864;2023-01-27T09:27:03;102076.34;;;2.62;95.43
48204;BME280;33994;50.998;5.864;2023-01-27T09:30:07;102073.78;;;2.62;95.74
48204;BME280;33994;50.998;5.864;2023-01-27T09:33:10;102076.47;;;2.65;95.63
48204;BME280;33994;50.998;5.864;2023-01-27T09:36:17;102080.84;;;2.66;95.71
48204;BME280;33994;50.998;5.864;2023-01-27T09:39:21;102080.00;;;2.67;95.73
48204;BME280;33994;50.998;5.864;2023-01-27T09:42:40;102081.75;;;2.69;95.93
48204;BME280;33994;50.998;5.864;2023-01-27T09:45:58;102087.03;;;2.72;95.79
48204;BME280;33994;50.998;5.864;2023-01-27T09:49:26;102086.22;;;2.73;95.78
48204;BME280;33994;50.998;5.864;2023-01-27T09:52:58;102098.31;;;2.74;95.52
48204;BME280;33994;50.998;5.864;2023-01-27T09:56:07;102097.63;;;2.78;95.74
48204;BME280;33994;50.998;5.864;2023-01-27T09:59:22;102105.38;;;2.78;95.55
48204;BME280;33994;50.998;5.864;2023-01-27T10:02:46;102103.72;;;2.80;95.80
48204;BME280;33994;50.998;5.864;2023-01-27T10:06:09;102103.66;;;2.78;95.62
48204;BME280;33994;50.998;5.864;2023-01-27T10:13:20;102108.84;;;2.78;95.71
48204;BME280;33994;50.998;5.864;2023-01-27T10:16:39;102106.28;;;2.80;95.68
48204;BME280;33994;50.998;5.864;2023-01-27T10:19:51;102106.28;;;2.80;95.64
48204;BME280;33994;50.998;5.864;2023-01-27T10:23:10;102105.41;;;2.79;95.37
48204;BME280;33994;50.998;5.864;2023-01-27T10:26:22;102105.66;;;2.85;95.49
48204;BME280;33994;50.998;5.864;2023-01-27T10:29:31;102093.66;;;2.87;95.44
48204;BME280;33994;50.998;5.864;2023-01-27T10:32:43;102096.28;;;2.89;95.33
48204;BME280;33994;50.998;5.864;2023-01-27T10:35:50;102098.13;;;2.91;95.16
48204;BME280;33994;50.998;5.864;2023-01-27T10:39:04;102098.28;;;2.96;95.03
48204;BME280;33994;50.998;5.864;2023-01-27T10:42:21;102108.72;;;2.99;94.94
48204;BME280;33994;50.998;5.864;2023-01-27T10:45:34;102094.88;;;2.97;94.93
48204;BME280;33994;50.998;5.864;2023-01-27T10:48:42;102090.47;;;2.95;94.88
48204;BME280;33994;50.998;5.864;2023-01-27T10:51:51;102097.41;;;2.96;94.85
48204;BME280;33994;50.998;5.864;2023-01-27T10:55:00;102086.19;;;2.95;94.90
48204;BME280;33994;50.998;5.864;2023-01-27T10:58:09;102093.97;;;2.97;94.82
48204;BME280;33994;50.998;5.864;2023-01-27T11:01:19;102087.19;;;2.99;94.73
48204;BME280;33994;50.998;5.864;2023-01-27T11:04:33;102098.41;;;2.99;94.33
48204;BME280;33994;50.998;5.864;2023-01-27T11:07:47;102086.34;;;3.00;94.48
48204;BME280;33994;50.998;5.864;2023-01-27T11:10:53;102090.00;;;3.05;94.51
48204;BME280;33994;50.998;5.864;2023-01-27T11:14:00;102090.88;;;3.05;94.54
48204;BME280;33994;50.998;5.864;2023-01-27T11:17:13;102077.94;;;3.05;94.48
48204;BME280;33994;50.998;5.864;2023-01-27T11:20:26;102078.94;;;3.09;94.36
48204;BME280;33994;50.998;5.864;2023-01-27T11:23:34;102081.56;;;3.10;94.14
48204;BME280;33994;50.998;5.864;2023-01-27T11:26:40;102071.22;;;3.10;93.77
48204;BME280;33994;50.998;5.864;2023-01-27T11:29:48;102070.50;;;3.14;93.75
48204;BME280;33994;50.998;5.864;2023-01-27T11:33:00;102077.50;;;3.17;93.69
48204;BME280;33994;50.998;5.864;2023-01-27T11:36:06;102066.38;;;3.20;93.64
48204;BME280;33994;50.998;5.864;2023-01-27T11:39:11;102063.88;;;3.23;93.61
48204;BME280;33994;50.998;5.864;2023-01-27T11:42:16;102063.88;;;3.23;93.49
48204;BME280;33994;50.998;5.864;2023-01-27T11:45:20;102066.47;;;3.23;93.35
48204;BME280;33994;50.998;5.864;2023-01-27T11:48:33;102071.66;;;3.23;93.35
48204;BME280;33994;50.998;5.864;2023-01-27T11:51:39;102065.69;;;3.24;93.17
48204;BME280;33994;50.998;5.864;2023-01-27T11:54:45;102069.19;;;3.26;93.31
48204;BME280;33994;50.998;5.864;2023-01-27T11:57:54;102063.34;;;3.31;93.25
48204;BME280;33994;50.998;5.864;2023-01-27T12:01:00;102071.25;;;3.36;93.09
48204;BME280;33994;50.998;5.864;2023-01-27T12:04:11;102072.00;;;3.32;93.00
48204;BME280;33994;50.998;5.864;2023-01-27T12:07:19;102070.22;;;3.31;92.72
48204;BME280;33994;50.998;5.864;2023-01-27T12:10:29;102066.81;;;3.32;92.57
48204;BME280;33994;50.998;5.864;2023-01-27T12:13:33;102064.16;;;3.30;92.47
48204;BME280;33994;50.998;5.864;2023-01-27T12:16:42;102055.63;;;3.33;92.47
48204;BME280;33994;50.998;5.864;2023-01-27T12:19:47;102066.81;;;3.32;92.52
48204;BME280;33994;50.998;5.864;2023-01-27T12:22:52;102064.16;;;3.30;92.48
48204;BME280;33994;50.998;5.864;2023-01-27T12:25:58;102054.69;;;3.31;92.22
48204;BME280;33994;50.998;5.864;2023-01-27T12:29:04;102053.81;;;3.30;92.22
48204;BME280;33994;50.998;5.864;2023-01-27T12:32:14;102055.53;;;3.30;92.11
48204;BME280;33994;50.998;5.864;2023-01-27T12:35:23;102057.22;;;3.29;92.20
48204;BME280;33994;50.998;5.864;2023-01-27T12:38:30;102054.69;;;3.31;92.27
48204;BME280;33994;50.998;5.864;2023-01-27T12:41:36;102044.34;;;3.31;92.07
48204;BME280;33994;50.998;5.864;2023-01-27T12:44:41;102045.25;;;3.31;92.03
48204;BME280;33994;50.998;5.864;2023-01-27T12:48:00;102040.97;;;3.32;92.03
48204;BME280;33994;50.998;5.864;2023-01-27T12:51:13;102041.75;;;3.31;91.96
48204;BME280;33994;50.998;5.864;2023-01-27T12:54:20;102040.88;;;3.30;91.91
48204;BME280;33994;50.998;5.864;2023-01-27T12:57:26;102032.31;;;3.31;91.95
48204;BME280;33994;50.998;5.864;2023-01-27T13:00:31;102038.38;;;3.32;92.02
48204;BME280;33994;50.998;5.864;2023-01-27T13:03:37;102030.63;;;3.32;92.17
48204;BME280;33994;50.998;5.864;2023-01-27T13:06:45;102033.19;;;3.32;92.23
48204;BME280;33994;50.998;5.864;2023-01-27T13:09:52;102028.19;;;3.36;92.35
48204;BME280;33994;50.998;5.864;2023-01-27T13:12:57;102029.94;;;3.37;92.34
48204;BME280;33994;50.998;5.864;2023-01-27T13:16:05;102030.69;;;3.35;92.19
48204;BME280;33994;50.998;5.864;2023-01-27T13:19:15;102023.84;;;3.35;92.25
48204;BME280;33994;50.998;5.864;2023-01-27T13:22:20;102037.66;;;3.36;91.99
48204;BME280;33994;50.998;5.864;2023-01-27T13:25:29;102028.94;;;3.34;91.94
48204;BME280;33994;50.998;5.864;2023-01-27T13:28:41;102034.00;;;3.31;92.12
48204;BME280;33994;50.998;5.864;2023-01-27T13:31:50;102028.06;;;3.33;92.19
48204;BME280;33994;50.998;5.864;2023-01-27T13:35:02;102041.03;;;3.35;92.13
48204;BME280;33994;50.998;5.864;2023-01-27T13:38:14;102040.22;;;3.36;92.19
48204;BME280;33994;50.998;5.864;2023-01-27T13:41:24;102046.13;;;3.32;92.04
48204;BME280;33994;50.998;5.864;2023-01-27T13:44:37;102050.50;;;3.34;92.32
48204;BME280;33994;50.998;5.864;2023-01-27T13:47:49;102044.47;;;3.34;91.99
48204;BME280;33994;50.998;5.864;2023-01-27T13:51:00;102054.69;;;3.31;92.18
48204;BME280;33994;50.998;5.864;2023-01-27T13:54:06;102060.69;;;3.30;92.27
48204;BME280;33994;50.998;5.864;2023-01-27T13:57:22;102068.31;;;3.25;92.29
48204;BME280;33994;50.998;5.864;2023-01-27T14:00:35;102058.88;;;3.27;92.43
48204;BME280;33994;50.998;5.864;2023-01-27T14:03:52;102067.47;;;3.26;92.31
48204;BME280;33994;50.998;5.864;2023-01-27T14:07:06;102078.69;;;3.27;92.30
48204;BME280;33994;50.998;5.864;2023-01-27T14:10:22;102069.13;;;3.24;92.01
48204;BME280;33994;50.998;5.864;2023-01-27T14:13:35;102065.69;;;3.24;91.96
48204;BME280;33994;50.998;5.864;2023-01-27T14:20:32;102076.91;;;3.24;91.22
48204;BME280;33994;50.998;5.864;2023-01-27T14:23:48;102075.19;;;3.25;90.79
48204;BME280;33994;50.998;5.864;2023-01-27T14:26:58;102074.47;;;3.29;90.48
48204;BME280;33994;50.998;5.864;2023-01-27T14:30:10;102074.47;;;3.29;90.43
48204;BME280;33994;50.998;5.864;2023-01-27T14:33:19;102080.56;;;3.31;90.00
48204;BME280;33994;50.998;5.864;2023-01-27T14:36:26;102082.25;;;3.30;90.02
48204;BME280;33994;50.998;5.864;2023-01-27T14:39:38;102083.25;;;3.34;89.87
48204;BME280;33994;50.998;5.864;2023-01-27T14:42:47;102085.00;;;3.35;89.66
48204;BME280;33994;50.998;5.864;2023-01-27T14:46:05;102078.88;;;3.31;89.82
48204;BME280;33994;50.998;5.864;2023-01-27T14:49:19;102082.34;;;3.32;89.56
48204;BME280;33994;50.998;5.864;2023-01-27T14:52:32;102085.06;;;3.36;89.71
48204;BME280;33994;50.998;5.864;2023-01-27T14:55:46;102092.88;;;3.38;89.51
48204;BME280;33994;50.998;5.864;2023-01-27T14:58:58;102082.47;;;3.36;89.23
48204;BME280;33994;50.998;5.864;2023-01-27T15:02:14;102086.91;;;3.39;89.21
48204;BME280;33994;50.998;5.864;2023-01-27T15:05:28;102100.63;;;3.38;88.96
48204;BME280;33994;50.998;5.864;2023-01-27T15:08:37;102094.53;;;3.36;88.48
48204;BME280;33994;50.998;5.864;2023-01-27T15:12:02;102104.06;;;3.37;88.36
48204;BME280;33994;50.998;5.864;2023-01-27T15:15:35;102102.31;;;3.36;88.19
48204;BME280;33994;50.998;5.864;2023-01-27T15:18:51;102101.34;;;3.34;88.15
48204;BME280;33994;50.998;5.864;2023-01-27T15:22:19;102103.09;;;3.35;87.73
48204;BME280;33994;50.998;5.864;2023-01-27T15:25:29;102117.75;;;3.34;87.47
48204;BME280;33994;50.998;5.864;2023-01-27T15:28:38;102113.53;;;3.36;87.28
48204;BME280;33994;50.998;5.864;2023-01-27T15:32:11;102115.22;;;3.36;87.17
48204;BME280;33994;50.998;5.864;2023-01-27T15:35:36;102122.09;;;3.35;87.05
48204;BME280;33994;50.998;5.864;2023-01-27T15:38:40;102122.16;;;3.37;87.33
48204;BME280;33994;50.998;5.864;2023-01-27T15:41:51;102126.56;;;3.39;87.13
48204;BME280;33994;50.998;5.864;2023-01-27T15:44:59;102131.66;;;3.38;87.13
48204;BME280;33994;50.998;5.864;2023-01-27T15:48:10;102127.31;;;3.37;86.88
48204;BME280;33994;50.998;5.864;2023-01-27T15:51:16;102128.19;;;3.37;86.88
48204;BME280;33994;50.998;5.864;2023-01-27T15:54:23;102138.78;;;3.44;86.67
48204;BME280;33994;50.998;5.864;2023-01-27T15:57:30;102146.56;;;3.45;86.65
48204;BME280;33994;50.998;5.864;2023-01-27T16:00:36;102139.66;;;3.44;86.50
48204;BME280;33994;50.998;5.864;2023-01-27T16:03:46;102150.75;;;3.42;86.17
48204;BME280;33994;50.998;5.864;2023-01-27T16:06:52;102151.56;;;3.39;86.04
48204;BME280;33994;50.998;5.864;2023-01-27T16:09:56;102151.56;;;3.39;86.01
48204;BME280;33994;50.998;5.864;2023-01-27T16:13:21;102147.19;;;3.38;85.77
48204;BME280;33994;50.998;5.864;2023-01-27T16:16:31;102152.44;;;3.39;85.56
48204;BME280;33994;50.998;5.864;2023-01-27T16:19:40;102152.31;;;3.36;85.62
48204;BME280;33994;50.998;5.864;2023-01-27T16:22:46;102158.34;;;3.37;85.68
48204;BME280;33994;50.998;5.864;2023-01-27T16:25:55;102169.47;;;3.34;85.48
48204;BME280;33994;50.998;5.864;2023-01-27T16:29:18;102159.91;;;3.32;85.13
48204;BME280;33994;50.998;5.864;2023-01-27T16:32:26;102165.09;;;3.32;85.01
48204;BME280;33994;50.998;5.864;2023-01-27T16:35:35;102177.13;;;3.31;84.96